sensor_id;sensor_type;location;lat;lon;timestamp;P1;durP1;ratioP1;P2;durP2;ratioP2
21777;SDS011;11050;52.222;20.916;2023-08-06T00:00:39;35.15;;;19.38;;
21777;SDS011;11050;52.222;20.916;2023-08-06T00:03:05;33.17;;;19.05;;
21777;SDS011;11050;52.222;20.916;2023-08-06T00:05:30;37.33;;;20.38;;
21777;SDS011;11050;52.222;20.916;2023-08-06T00:07:56;39.00;;;19.67;;
21777;SDS011;11050;52.222;20.916;2023-08-06T00:10:22;35.40;;;20.85;;
21777;SDS011;11050;52.222;20.916;2023-08-06T00:12:48;34.10;;;18.08;;
21777;SDS011;11050;52.222;20.916;2023-08-06T00:15:14;45.40;;;22.15;;
21777;SDS011;11050;52.222;20.916;2023-08-06T00:17:39;42.35;;;20.10;;
21777;SDS011;11050;52.222;20.916;2023-08-06T00:20:06;37.35;;;20.25;;
21777;SDS011;11050;52.222;20.916;2023-08-06T00:22:33;40.33;;;22.48;;
21777;SDS011;11050;52.222;20.916;2023-08-06T00:25:00;38.50;;;20.85;;
21777;SDS011;11050;52.222;20.916;2023-08-06T00:27:26;31.23;;;19.55;;
21777;SDS011;11050;52.222;20.916;2023-08-06T00:29:52;36.05;;;20.75;;
21777;SDS011;11050;52.222;20.916;2023-08-06T00:32:18;36.35;;;20.20;;
21777;SDS011;11050;52.222;20.916;2023-08-06T00:34:44;35.25;;;21.02;;
21777;SDS011;11050;52.222;20.916;2023-08-06T00:37:09;32.85;;;22.25;;
21777;SDS011;11050;52.222;20.916;2023-08-06T00:39:35;28.92;;;18.75;;
21777;SDS011;11050;52.222;20.916;2023-08-06T00:42:01;25.27;;;18.35;;
21777;SDS011;11050;52.222;20.916;2023-08-06T00:44:27;30.70;;;19.00;;
21777;SDS011;11050;52.222;20.916;2023-08-06T00:46:53;26.73;;;17.75;;
21777;SDS011;11050;52.222;20.916;2023-08-06T00:49:19;30.25;;;18.65;;
21777;SDS011;11050;52.222;20.916;2023-08-06T00:51:45;28.17;;;19.08;;
21777;SDS011;11050;52.222;20.916;2023-08-06T00:54:12;25.05;;;16.85;;
21777;SDS011;11050;52.222;20.916;2023-08-06T00:56:39;23.98;;;18.30;;
21777;SDS011;11050;52.222;20.916;2023-08-06T00:59:07;25.33;;;16.08;;
21777;SDS011;11050;52.222;20.916;2023-08-06T01:01:35;21.27;;;16.25;;
21777;SDS011;11050;52.222;20.916;2023-08-06T01:04:01;23.85;;;16.45;;
21777;SDS011;11050;52.222;20.916;2023-08-06T01:09:37;26.67;;;17.77;;
21777;SDS011;11050;52.222;20.916;2023-08-06T01:15:36;24.50;;;16.92;;
21777;SDS011;11050;52.222;20.916;2023-08-06T01:18:10;23.85;;;17.55;;
21777;SDS011;11050;52.222;20.916;2023-08-06T01:20:37;22.27;;;17.10;;
21777;SDS011;11050;52.222;20.916;2023-08-06T01:23:02;24.35;;;17.90;;
21777;SDS011;11050;52.222;20.916;2023-08-06T01:25:36;27.75;;;19.50;;
21777;SDS011;11050;52.222;20.916;2023-08-06T01:31:18;29.90;;;18.75;;
21777;SDS011;11050;52.222;20.916;2023-08-06T01:33:58;26.73;;;19.15;;
21777;SDS011;11050;52.222;20.916;2023-08-06T01:36:26;25.23;;;18.08;;
21777;SDS011;11050;52.222;20.916;2023-08-06T01:38:53;27.90;;;18.08;;
21777;SDS011;11050;52.222;20.916;2023-08-06T01:41:19;22.40;;;16.35;;
21777;SDS011;11050;52.222;20.916;2023-08-06T01:43:45;23.92;;;16.70;;
21777;SDS011;11050;52.222;20.916;2023-08-06T01:46:11;24.98;;;16.50;;
21777;SDS011;11050;52.222;20.916;2023-08-06T01:48:37;24.63;;;16.90;;
21777;SDS011;11050;52.222;20.916;2023-08-06T01:51:06;24.42;;;16.02;;
21777;SDS011;11050;52.222;20.916;2023-08-06T01:53:32;24.92;;;16.55;;
21777;SDS011;11050;52.222;20.916;2023-08-06T01:55:58;22.13;;;16.65;;
21777;SDS011;11050;52.222;20.916;2023-08-06T01:58:24;23.75;;;15.75;;
21777;SDS011;11050;52.222;20.916;2023-08-06T02:00:50;23.98;;;15.60;;
21777;SDS011;11050;52.222;20.916;2023-08-06T02:03:16;20.40;;;14.80;;
21777;SDS011;11050;52.222;20.916;2023-08-06T02:05:41;20.77;;;14.98;;
21777;SDS011;11050;52.222;20.916;2023-08-06T02:08:07;20.88;;;15.60;;
21777;SDS011;11050;52.222;20.916;2023-08-06T02:10:34;19.63;;;14.93;;
21777;SDS011;11050;52.222;20.916;2023-08-06T02:13:00;21.73;;;15.80;;
21777;SDS011;11050;52.222;20.916;2023-08-06T02:15:25;20.30;;;14.95;;
21777;SDS011;11050;52.222;20.916;2023-08-06T02:17:51;21.45;;;15.63;;
21777;SDS011;11050;52.222;20.916;2023-08-06T02:20:17;26.63;;;15.90;;
21777;SDS011;11050;52.222;20.916;2023-08-06T02:22:43;20.17;;;16.38;;
21777;SDS011;11050;52.222;20.916;2023-08-06T02:25:08;24.02;;;16.02;;
21777;SDS011;11050;52.222;20.916;2023-08-06T02:27:34;21.90;;;15.02;;
21777;SDS011;11050;52.222;20.916;2023-08-06T02:30:00;21.17;;;15.02;;
21777;SDS011;11050;52.222;20.916;2023-08-06T02:32:27;24.20;;;15.73;;
21777;SDS011;11050;52.222;20.916;2023-08-06T02:34:55;20.98;;;14.98;;
21777;SDS011;11050;52.222;20.916;2023-08-06T02:37:20;21.23;;;14.70;;
21777;SDS011;11050;52.222;20.916;2023-08-06T02:39:46;20.30;;;14.23;;
21777;SDS011;11050;52.222;20.916;2023-08-06T02:42:12;19.33;;;14.27;;
21777;SDS011;11050;52.222;20.916;2023-08-06T02:44:38;23.27;;;14.75;;
21777;SDS011;11050;52.222;20.916;2023-08-06T02:47:03;22.27;;;14.07;;
21777;SDS011;11050;52.222;20.916;2023-08-06T02:49:30;19.55;;;13.98;;
21777;SDS011;11050;52.222;20.916;2023-08-06T02:51:55;18.70;;;14.95;;
21777;SDS011;11050;52.222;20.916;2023-08-06T02:54:21;21.30;;;15.60;;
21777;SDS011;11050;52.222;20.916;2023-08-06T02:56:47;21.92;;;16.02;;
21777;SDS011;11050;52.222;20.916;2023-08-06T02:59:13;17.63;;;13.63;;
21777;SDS011;11050;52.222;20.916;2023-08-06T03:01:39;19.45;;;14.77;;
21777;SDS011;11050;52.222;20.916;2023-08-06T03:04:05;19.23;;;14.02;;
21777;SDS011;11050;52.222;20.916;2023-08-06T03:06:31;20.42;;;14.90;;
21777;SDS011;11050;52.222;20.916;2023-08-06T03:08:57;19.73;;;14.95;;
21777;SDS011;11050;52.222;20.916;2023-08-06T03:11:23;17.55;;;14.73;;
21777;SDS011;11050;52.222;20.916;2023-08-06T03:13:48;19.95;;;14.30;;
21777;SDS011;11050;52.222;20.916;2023-08-06T03:16:14;22.10;;;15.27;;
21777;SDS011;11050;52.222;20.916;2023-08-06T03:18:40;18.83;;;15.68;;
21777;SDS011;11050;52.222;20.916;2023-08-06T03:21:06;20.50;;;15.18;;
21777;SDS011;11050;52.222;20.916;2023-08-06T03:23:31;20.90;;;15.23;;
21777;SDS011;11050;52.222;20.916;2023-08-06T03:26:01;18.75;;;14.80;;
21777;SDS011;11050;52.222;20.916;2023-08-06T03:28:28;21.40;;;15.60;;
21777;SDS011;11050;52.222;20.916;2023-08-06T03:31:03;22.05;;;16.60;;
21777;SDS011;11050;52.222;20.916;2023-08-06T03:33:29;21.58;;;15.63;;
21777;SDS011;11050;52.222;20.916;2023-08-06T03:35:55;21.80;;;16.70;;
21777;SDS011;11050;52.222;20.916;2023-08-06T03:38:21;21.52;;;16.63;;
21777;SDS011;11050;52.222;20.916;2023-08-06T03:40:47;23.75;;;16.83;;
21777;SDS011;11050;52.222;20.916;2023-08-06T03:43:14;22.33;;;16.35;;
21777;SDS011;11050;52.222;20.916;2023-08-06T03:45:40;23.83;;;17.80;;
21777;SDS011;11050;52.222;20.916;2023-08-06T03:48:06;27.85;;;18.83;;
21777;SDS011;11050;52.222;20.916;2023-08-06T03:50:33;23.23;;;17.25;;
21777;SDS011;11050;52.222;20.916;2023-08-06T03:53:00;25.65;;;19.42;;
21777;SDS011;11050;52.222;20.916;2023-08-06T03:55:26;24.50;;;18.33;;
21777;SDS011;11050;52.222;20.916;2023-08-06T03:57:52;26.70;;;18.90;;
21777;SDS011;11050;52.222;20.916;2023-08-06T04:00:18;26.77;;;18.48;;
21777;SDS011;11050;52.222;20.916;2023-08-06T04:02:44;26.67;;;17.58;;
21777;SDS011;11050;52.222;20.916;2023-08-06T04:05:10;26.42;;;19.40;;
21777;SDS011;11050;52.222;20.916;2023-08-06T04:07:35;27.23;;;19.33;;
21777;SDS011;11050;52.222;20.916;2023-08-06T04:10:02;30.05;;;19.48;;
21777;SDS011;11050;52.222;20.916;2023-08-06T04:12:30;24.63;;;18.85;;
21777;SDS011;11050;52.222;20.916;2023-08-06T04:14:58;24.55;;;18.75;;
21777;SDS011;11050;52.222;20.916;2023-08-06T04:17:24;26.55;;;20.40;;
21777;SDS011;11050;52.222;20.916;2023-08-06T04:19:50;25.83;;;18.83;;
21777;SDS011;11050;52.222;20.916;2023-08-06T04:22:18;26.58;;;18.88;;
21777;SDS011;11050;52.222;20.916;2023-08-06T04:24:44;26.20;;;19.05;;
21777;SDS011;11050;52.222;20.916;2023-08-06T04:27:11;26.05;;;19.95;;
21777;SDS011;11050;52.222;20.916;2023-08-06T04:29:38;28.42;;;20.20;;
21777;SDS011;11050;52.222;20.916;2023-08-06T04:32:05;27.77;;;21.27;;
21777;SDS011;11050;52.222;20.916;2023-08-06T04:34:33;27.13;;;20.15;;
21777;SDS011;11050;52.222;20.916;2023-08-06T04:37:01;29.55;;;20.85;;
21777;SDS011;11050;52.222;20.916;2023-08-06T04:39:28;26.67;;;20.05;;
21777;SDS011;11050;52.222;20.916;2023-08-06T04:41:55;24.00;;;19.65;;
21777;SDS011;11050;52.222;20.916;2023-08-06T04:44:25;26.55;;;20.83;;
21777;SDS011;11050;52.222;20.916;2023-08-06T04:46:51;27.60;;;21.75;;
21777;SDS011;11050;52.222;20.916;2023-08-06T04:49:17;23.20;;;19.25;;
21777;SDS011;11050;52.222;20.916;2023-08-06T04:51:45;25.45;;;19.33;;
21777;SDS011;11050;52.222;20.916;2023-08-06T04:54:11;24.17;;;19.58;;
21777;SDS011;11050;52.222;20.916;2023-08-06T04:56:36;25.90;;;20.00;;
21777;SDS011;11050;52.222;20.916;2023-08-06T04:59:02;24.65;;;20.08;;
21777;SDS011;11050;52.222;20.916;2023-08-06T05:01:28;29.38;;;21.35;;
21777;SDS011;11050;52.222;20.916;2023-08-06T05:03:54;28.02;;;19.85;;
21777;SDS011;11050;52.222;20.916;2023-08-06T05:06:19;25.17;;;20.02;;
21777;SDS011;11050;52.222;20.916;2023-08-06T05:08:45;23.05;;;19.35;;
21777;SDS011;11050;52.222;20.916;2023-08-06T05:11:11;23.00;;;19.25;;
21777;SDS011;11050;52.222;20.916;2023-08-06T05:13:36;26.42;;;19.42;;
21777;SDS011;11050;52.222;20.916;2023-08-06T05:16:02;22.25;;;18.17;;
21777;SDS011;11050;52.222;20.916;2023-08-06T05:18:28;23.77;;;19.35;;
21777;SDS011;11050;52.222;20.916;2023-08-06T05:20:55;24.58;;;19.33;;
21777;SDS011;11050;52.222;20.916;2023-08-06T05:23:21;24.15;;;18.80;;
21777;SDS011;11050;52.222;20.916;2023-08-06T05:25:47;20.55;;;17.92;;
21777;SDS011;11050;52.222;20.916;2023-08-06T05:28:12;19.90;;;17.80;;
21777;SDS011;11050;52.222;20.916;2023-08-06T05:30:38;20.92;;;18.67;;
21777;SDS011;11050;52.222;20.916;2023-08-06T05:33:05;19.08;;;17.08;;
21777;SDS011;11050;52.222;20.916;2023-08-06T05:35:31;20.27;;;17.95;;
21777;SDS011;11050;52.222;20.916;2023-08-06T05:37:57;18.65;;;16.50;;
21777;SDS011;11050;52.222;20.916;2023-08-06T05:40:23;19.77;;;16.98;;
21777;SDS011;11050;52.222;20.916;2023-08-06T05:42:50;18.33;;;16.42;;
21777;SDS011;11050;52.222;20.916;2023-08-06T05:45:18;17.58;;;15.77;;
21777;SDS011;11050;52.222;20.916;2023-08-06T05:47:44;19.90;;;16.05;;
21777;SDS011;11050;52.222;20.916;2023-08-06T05:50:09;18.52;;;15.27;;
21777;SDS011;11050;52.222;20.916;2023-08-06T05:52:35;16.65;;;14.77;;
21777;SDS011;11050;52.222;20.916;2023-08-06T05:55:01;20.13;;;16.00;;
21777;SDS011;11050;52.222;20.916;2023-08-06T05:57:26;16.58;;;14.05;;
21777;SDS011;11050;52.222;20.916;2023-08-06T05:59:52;17.88;;;14.27;;
21777;SDS011;11050;52.222;20.916;2023-08-06T06:02:18;16.50;;;13.98;;
21777;SDS011;11050;52.222;20.916;2023-08-06T06:04:44;16.90;;;13.35;;
21777;SDS011;11050;52.222;20.916;2023-08-06T06:07:09;18.70;;;14.43;;
21777;SDS011;11050;52.222;20.916;2023-08-06T06:09:35;15.55;;;13.82;;
21777;SDS011;11050;52.222;20.916;2023-08-06T06:12:01;16.98;;;13.45;;
21777;SDS011;11050;52.222;20.916;2023-08-06T06:14:27;15.75;;;14.07;;
21777;SDS011;11050;52.222;20.916;2023-08-06T06:16:52;15.02;;;13.10;;
21777;SDS011;11050;52.222;20.916;2023-08-06T06:19:18;14.43;;;13.02;;
21777;SDS011;11050;52.222;20.916;2023-08-06T06:21:44;18.95;;;13.82;;
21777;SDS011;11050;52.222;20.916;2023-08-06T06:24:10;15.60;;;13.45;;
21777;SDS011;11050;52.222;20.916;2023-08-06T06:26:35;14.95;;;12.90;;
21777;SDS011;11050;52.222;20.916;2023-08-06T06:29:01;14.25;;;12.85;;
21777;SDS011;11050;52.222;20.916;2023-08-06T06:31:27;13.55;;;12.07;;
21777;SDS011;11050;52.222;20.916;2023-08-06T06:33:53;14.25;;;12.70;;
21777;SDS011;11050;52.222;20.916;2023-08-06T06:36:19;13.30;;;11.88;;
21777;SDS011;11050;52.222;20.916;2023-08-06T06:38:45;13.60;;;11.63;;
21777;SDS011;11050;52.222;20.916;2023-08-06T06:41:11;16.30;;;12.15;;
21777;SDS011;11050;52.222;20.916;2023-08-06T06:43:37;15.20;;;12.20;;
21777;SDS011;11050;52.222;20.916;2023-08-06T06:46:04;15.38;;;11.93;;
21777;SDS011;11050;52.222;20.916;2023-08-06T06:48:31;14.70;;;12.63;;
21777;SDS011;11050;52.222;20.916;2023-08-06T06:50:58;12.82;;;11.57;;
21777;SDS011;11050;52.222;20.916;2023-08-06T06:53:24;13.30;;;11.70;;
21777;SDS011;11050;52.222;20.916;2023-08-06T06:55:54;13.38;;;12.02;;
21777;SDS011;11050;52.222;20.916;2023-08-06T06:58:20;12.38;;;11.20;;
21777;SDS011;11050;52.222;20.916;2023-08-06T07:00:47;12.73;;;11.10;;
21777;SDS011;11050;52.222;20.916;2023-08-06T07:03:16;12.48;;;11.18;;
21777;SDS011;11050;52.222;20.916;2023-08-06T07:05:44;11.85;;;10.65;;
21777;SDS011;11050;52.222;20.916;2023-08-06T07:08:10;13.13;;;10.82;;
21777;SDS011;11050;52.222;20.916;2023-08-06T07:10:36;15.57;;;12.35;;
21777;SDS011;11050;52.222;20.916;2023-08-06T07:13:02;16.65;;;11.35;;
21777;SDS011;11050;52.222;20.916;2023-08-06T07:15:28;14.00;;;11.98;;
21777;SDS011;11050;52.222;20.916;2023-08-06T07:17:54;15.68;;;11.82;;
21777;SDS011;11050;52.222;20.916;2023-08-06T07:20:20;13.27;;;11.15;;
21777;SDS011;11050;52.222;20.916;2023-08-06T07:22:46;14.05;;;11.88;;
21777;SDS011;11050;52.222;20.916;2023-08-06T07:25:12;15.45;;;11.73;;
21777;SDS011;11050;52.222;20.916;2023-08-06T07:27:38;14.02;;;11.70;;
21777;SDS011;11050;52.222;20.916;2023-08-06T07:30:04;12.35;;;11.10;;
21777;SDS011;11050;52.222;20.916;2023-08-06T07:32:30;14.82;;;11.68;;
21777;SDS011;11050;52.222;20.916;2023-08-06T07:34:56;13.90;;;11.25;;
21777;SDS011;11050;52.222;20.916;2023-08-06T07:37:25;11.68;;;10.57;;
21777;SDS011;11050;52.222;20.916;2023-08-06T07:39:55;14.10;;;12.23;;
21777;SDS011;11050;52.222;20.916;2023-08-06T07:42:21;11.98;;;10.63;;
21777;SDS011;11050;52.222;20.916;2023-08-06T07:44:54;15.52;;;11.25;;
21777;SDS011;11050;52.222;20.916;2023-08-06T07:47:21;15.60;;;11.23;;
21777;SDS011;11050;52.222;20.916;2023-08-06T07:49:47;14.02;;;10.45;;
21777;SDS011;11050;52.222;20.916;2023-08-06T07:52:13;12.82;;;10.90;;
21777;SDS011;11050;52.222;20.916;2023-08-06T07:54:39;11.30;;;10.00;;
21777;SDS011;11050;52.222;20.916;2023-08-06T07:57:05;12.23;;;10.80;;
21777;SDS011;11050;52.222;20.916;2023-08-06T07:59:31;16.85;;;11.27;;
21777;SDS011;11050;52.222;20.916;2023-08-06T08:01:57;11.68;;;10.48;;
21777;SDS011;11050;52.222;20.916;2023-08-06T08:04:23;17.90;;;11.13;;
21777;SDS011;11050;52.222;20.916;2023-08-06T08:06:49;12.65;;;11.35;;
21777;SDS011;11050;52.222;20.916;2023-08-06T08:09:15;13.95;;;10.93;;
21777;SDS011;11050;52.222;20.916;2023-08-06T08:11:41;14.38;;;10.65;;
21777;SDS011;11050;52.222;20.916;2023-08-06T08:14:07;13.45;;;10.75;;
21777;SDS011;11050;52.222;20.916;2023-08-06T08:16:33;17.00;;;10.88;;
21777;SDS011;11050;52.222;20.916;2023-08-06T08:18:59;16.15;;;10.98;;
21777;SDS011;11050;52.222;20.916;2023-08-06T08:21:25;15.55;;;11.10;;
21777;SDS011;11050;52.222;20.916;2023-08-06T08:23:51;14.27;;;11.30;;
21777;SDS011;11050;52.222;20.916;2023-08-06T08:26:17;12.98;;;10.52;;
21777;SDS011;11050;52.222;20.916;2023-08-06T08:28:43;18.17;;;10.98;;
21777;SDS011;11050;52.222;20.916;2023-08-06T08:31:09;14.70;;;10.77;;
21777;SDS011;11050;52.222;20.916;2023-08-06T08:33:36;16.85;;;10.82;;
21777;SDS011;11050;52.222;20.916;2023-08-06T08:36:03;17.13;;;11.23;;
21777;SDS011;11050;52.222;20.916;2023-08-06T08:38:29;14.13;;;10.20;;
21777;SDS011;11050;52.222;20.916;2023-08-06T08:40:55;12.50;;;10.43;;
21777;SDS011;11050;52.222;20.916;2023-08-06T08:43:21;12.85;;;11.05;;
21777;SDS011;11050;52.222;20.916;2023-08-06T08:45:51;12.77;;;10.65;;
21777;SDS011;11050;52.222;20.916;2023-08-06T08:48:23;16.90;;;10.30;;
21777;SDS011;11050;52.222;20.916;2023-08-06T08:50:50;12.70;;;10.77;;
21777;SDS011;11050;52.222;20.916;2023-08-06T08:53:16;12.38;;;10.68;;
21777;SDS011;11050;52.222;20.916;2023-08-06T08:55:46;11.57;;;10.45;;
21777;SDS011;11050;52.222;20.916;2023-08-06T08:58:13;15.80;;;12.02;;
21777;SDS011;11050;52.222;20.916;2023-08-06T09:00:41;12.13;;;10.93;;
21777;SDS011;11050;52.222;20.916;2023-08-06T09:03:07;11.13;;;10.02;;
21777;SDS011;11050;52.222;20.916;2023-08-06T09:05:34;19.77;;;10.70;;
21777;SDS011;11050;52.222;20.916;2023-08-06T09:08:04;12.25;;;10.70;;
21777;SDS011;11050;52.222;20.916;2023-08-06T09:10:30;16.55;;;10.52;;
21777;SDS011;11050;52.222;20.916;2023-08-06T09:12:56;13.23;;;10.20;;
21777;SDS011;11050;52.222;20.916;2023-08-06T09:15:26;12.30;;;9.38;;
21777;SDS011;11050;52.222;20.916;2023-08-06T09:17:53;11.27;;;10.15;;
21777;SDS011;11050;52.222;20.916;2023-08-06T09:20:20;19.20;;;10.27;;
21777;SDS011;11050;52.222;20.916;2023-08-06T09:22:46;10.68;;;9.68;;
21777;SDS011;11050;52.222;20.916;2023-08-06T09:25:23;10.77;;;9.68;;
21777;SDS011;11050;52.222;20.916;2023-08-06T09:27:50;17.70;;;9.40;;
21777;SDS011;11050;52.222;20.916;2023-08-06T09:30:29;10.48;;;9.38;;
21777;SDS011;11050;52.222;20.916;2023-08-06T09:32:57;13.05;;;8.73;;
21777;SDS011;11050;52.222;20.916;2023-08-06T09:35:23;13.18;;;9.15;;
21777;SDS011;11050;52.222;20.916;2023-08-06T09:37:49;9.77;;;8.88;;
21777;SDS011;11050;52.222;20.916;2023-08-06T09:40:31;13.38;;;10.23;;
21777;SDS011;11050;52.222;20.916;2023-08-06T09:42:57;10.45;;;9.25;;
21777;SDS011;11050;52.222;20.916;2023-08-06T09:45:35;12.05;;;8.93;;
21777;SDS011;11050;52.222;20.916;2023-08-06T09:48:05;10.35;;;9.35;;
21777;SDS011;11050;52.222;20.916;2023-08-06T09:50:37;13.30;;;9.10;;
21777;SDS011;11050;52.222;20.916;2023-08-06T09:53:04;9.52;;;8.57;;
21777;SDS011;11050;52.222;20.916;2023-08-06T09:55:33;10.85;;;9.15;;
21777;SDS011;11050;52.222;20.916;2023-08-06T09:57:59;10.52;;;8.65;;
21777;SDS011;11050;52.222;20.916;2023-08-06T10:00:25;14.63;;;8.98;;
21777;SDS011;11050;52.222;20.916;2023-08-06T10:02:53;10.52;;;8.88;;
21777;SDS011;11050;52.222;20.916;2023-08-06T10:05:24;11.25;;;8.95;;
21777;SDS011;11050;52.222;20.916;2023-08-06T10:07:51;11.32;;;8.02;;
21777;SDS011;11050;52.222;20.916;2023-08-06T10:10:18;8.82;;;7.57;;
21777;SDS011;11050;52.222;20.916;2023-08-06T10:12:48;12.95;;;8.95;;
21777;SDS011;11050;52.222;20.916;2023-08-06T10:15:21;22.15;;;12.18;;
21777;SDS011;11050;52.222;20.916;2023-08-06T10:17:51;13.27;;;9.43;;
21777;SDS011;11050;52.222;20.916;2023-08-06T10:20:22;13.93;;;8.27;;
21777;SDS011;11050;52.222;20.916;2023-08-06T10:22:59;15.50;;;9.15;;
21777;SDS011;11050;52.222;20.916;2023-08-06T10:25:39;41.58;;;25.73;;
21777;SDS011;11050;52.222;20.916;2023-08-06T10:28:10;25.48;;;17.90;;
21777;SDS011;11050;52.222;20.916;2023-08-06T10:33:13;15.30;;;8.98;;
21777;SDS011;11050;52.222;20.916;2023-08-06T10:35:46;11.18;;;7.50;;
21777;SDS011;11050;52.222;20.916;2023-08-06T10:38:18;8.80;;;7.88;;
21777;SDS011;11050;52.222;20.916;2023-08-06T10:43:32;8.80;;;7.78;;
21777;SDS011;11050;52.222;20.916;2023-08-06T10:46:03;9.05;;;7.85;;
21777;SDS011;11050;52.222;20.916;2023-08-06T10:51:13;10.60;;;7.22;;
21777;SDS011;11050;52.222;20.916;2023-08-06T10:53:42;9.05;;;8.15;;
21777;SDS011;11050;52.222;20.916;2023-08-06T10:56:15;9.88;;;8.25;;
21777;SDS011;11050;52.222;20.916;2023-08-06T10:58:42;11.18;;;7.18;;
21777;SDS011;11050;52.222;20.916;2023-08-06T11:01:10;9.63;;;7.40;;
21777;SDS011;11050;52.222;20.916;2023-08-06T11:03:36;7.82;;;6.90;;
21777;SDS011;11050;52.222;20.916;2023-08-06T11:06:04;9.05;;;7.65;;
21777;SDS011;11050;52.222;20.916;2023-08-06T11:08:40;10.73;;;7.35;;
21777;SDS011;11050;52.222;20.916;2023-08-06T11:11:14;9.60;;;7.20;;
21777;SDS011;11050;52.222;20.916;2023-08-06T11:13:44;7.97;;;7.28;;
21777;SDS011;11050;52.222;20.916;2023-08-06T11:16:13;8.30;;;6.88;;
21777;SDS011;11050;52.222;20.916;2023-08-06T11:18:41;9.40;;;6.90;;
21777;SDS011;11050;52.222;20.916;2023-08-06T11:21:07;9.55;;;6.90;;
21777;SDS011;11050;52.222;20.916;2023-08-06T11:23:33;10.93;;;6.80;;
21777;SDS011;11050;52.222;20.916;2023-08-06T11:26:01;7.20;;;6.50;;
21777;SDS011;11050;52.222;20.916;2023-08-06T11:28:27;7.32;;;6.20;;
21777;SDS011;11050;52.222;20.916;2023-08-06T11:30:53;10.00;;;7.07;;
21777;SDS011;11050;52.222;20.916;2023-08-06T11:33:22;11.23;;;6.85;;
21777;SDS011;11050;52.222;20.916;2023-08-06T11:35:52;8.20;;;6.82;;
21777;SDS011;11050;52.222;20.916;2023-08-06T11:38:20;7.32;;;6.38;;
21777;SDS011;11050;52.222;20.916;2023-08-06T11:40:45;8.75;;;6.88;;
21777;SDS011;11050;52.222;20.916;2023-08-06T11:43:13;6.80;;;6.20;;
21777;SDS011;11050;52.222;20.916;2023-08-06T11:45:40;12.07;;;6.63;;
21777;SDS011;11050;52.222;20.916;2023-08-06T11:48:06;8.02;;;6.00;;
21777;SDS011;11050;52.222;20.916;2023-08-06T11:50:38;8.80;;;6.78;;
21777;SDS011;11050;52.222;20.916;2023-08-06T11:53:04;7.05;;;6.35;;
21777;SDS011;11050;52.222;20.916;2023-08-06T11:55:30;17.45;;;9.68;;
21777;SDS011;11050;52.222;20.916;2023-08-06T11:57:56;8.18;;;5.97;;
21777;SDS011;11050;52.222;20.916;2023-08-06T12:00:24;6.85;;;6.10;;
21777;SDS011;11050;52.222;20.916;2023-08-06T12:02:51;8.38;;;5.88;;
21777;SDS011;11050;52.222;20.916;2023-08-06T12:05:20;8.20;;;5.70;;
21777;SDS011;11050;52.222;20.916;2023-08-06T12:07:51;9.95;;;6.55;;
21777;SDS011;11050;52.222;20.916;2023-08-06T12:10:21;10.23;;;5.50;;
21777;SDS011;11050;52.222;20.916;2023-08-06T12:12:49;6.32;;;5.20;;
21777;SDS011;11050;52.222;20.916;2023-08-06T12:15:16;8.30;;;5.20;;
21777;SDS011;11050;52.222;20.916;2023-08-06T12:17:42;6.38;;;5.45;;
21777;SDS011;11050;52.222;20.916;2023-08-06T12:20:08;7.88;;;5.72;;
21777;SDS011;11050;52.222;20.916;2023-08-06T12:22:35;7.22;;;6.18;;
21777;SDS011;11050;52.222;20.916;2023-08-06T12:25:03;6.70;;;5.95;;
21777;SDS011;11050;52.222;20.916;2023-08-06T12:27:35;6.95;;;5.97;;
21777;SDS011;11050;52.222;20.916;2023-08-06T12:30:02;10.50;;;6.07;;
21777;SDS011;11050;52.222;20.916;2023-08-06T12:32:30;6.60;;;5.78;;
21777;SDS011;11050;52.222;20.916;2023-08-06T12:34:56;7.32;;;6.43;;
21777;SDS011;11050;52.222;20.916;2023-08-06T12:37:23;8.40;;;7.15;;
21777;SDS011;11050;52.222;20.916;2023-08-06T12:39:50;11.02;;;7.45;;
21777;SDS011;11050;52.222;20.916;2023-08-06T12:42:16;9.15;;;7.13;;
21777;SDS011;11050;52.222;20.916;2023-08-06T12:44:42;11.95;;;7.00;;
21777;SDS011;11050;52.222;20.916;2023-08-06T12:47:08;8.32;;;7.53;;
21777;SDS011;11050;52.222;20.916;2023-08-06T12:49:34;12.35;;;8.15;;
21777;SDS011;11050;52.222;20.916;2023-08-06T12:52:00;11.02;;;7.72;;
21777;SDS011;11050;52.222;20.916;2023-08-06T12:54:27;9.43;;;7.32;;
21777;SDS011;11050;52.222;20.916;2023-08-06T12:56:53;9.05;;;8.18;;
21777;SDS011;11050;52.222;20.916;2023-08-06T12:59:19;15.35;;;8.10;;
21777;SDS011;11050;52.222;20.916;2023-08-06T13:01:46;11.05;;;7.82;;
21777;SDS011;11050;52.222;20.916;2023-08-06T13:04:13;8.07;;;7.28;;
21777;SDS011;11050;52.222;20.916;2023-08-06T13:06:39;8.43;;;7.63;;
21777;SDS011;11050;52.222;20.916;2023-08-06T13:09:06;10.43;;;7.35;;
21777;SDS011;11050;52.222;20.916;2023-08-06T13:11:33;8.30;;;7.57;;
21777;SDS011;11050;52.222;20.916;2023-08-06T13:14:03;7.25;;;6.55;;
21777;SDS011;11050;52.222;20.916;2023-08-06T13:16:38;11.88;;;6.40;;
21777;SDS011;11050;52.222;20.916;2023-08-06T13:19:06;8.02;;;6.72;;
21777;SDS011;11050;52.222;20.916;2023-08-06T13:24:03;11.13;;;6.43;;
21777;SDS011;11050;52.222;20.916;2023-08-06T13:26:29;7.05;;;6.38;;
21777;SDS011;11050;52.222;20.916;2023-08-06T13:28:58;8.60;;;6.70;;
21777;SDS011;11050;52.222;20.916;2023-08-06T13:31:26;8.00;;;6.45;;
21777;SDS011;11050;52.222;20.916;2023-08-06T13:33:56;12.00;;;6.15;;
21777;SDS011;11050;52.222;20.916;2023-08-06T13:36:23;6.00;;;5.32;;
21777;SDS011;11050;52.222;20.916;2023-08-06T13:38:50;8.40;;;5.65;;
21777;SDS011;11050;52.222;20.916;2023-08-06T13:41:16;7.80;;;5.50;;
21777;SDS011;11050;52.222;20.916;2023-08-06T13:43:42;7.32;;;5.85;;
21777;SDS011;11050;52.222;20.916;2023-08-06T13:46:09;8.68;;;5.60;;
21777;SDS011;11050;52.222;20.916;2023-08-06T13:48:39;6.38;;;5.78;;
21777;SDS011;11050;52.222;20.916;2023-08-06T13:51:05;6.53;;;5.93;;
21777;SDS011;11050;52.222;20.916;2023-08-06T13:53:31;10.07;;;6.25;;
21777;SDS011;11050;52.222;20.916;2023-08-06T13:55:56;6.88;;;6.28;;
21777;SDS011;11050;52.222;20.916;2023-08-06T13:58:22;7.68;;;6.53;;
21777;SDS011;11050;52.222;20.916;2023-08-06T14:00:49;6.80;;;5.90;;
21777;SDS011;11050;52.222;20.916;2023-08-06T14:03:17;9.40;;;6.13;;
21777;SDS011;11050;52.222;20.916;2023-08-06T14:05:44;7.00;;;6.30;;
21777;SDS011;11050;52.222;20.916;2023-08-06T14:08:10;6.32;;;5.72;;
21777;SDS011;11050;52.222;20.916;2023-08-06T14:10:35;6.25;;;5.65;;
21777;SDS011;11050;52.222;20.916;2023-08-06T14:13:01;6.63;;;5.97;;
21777;SDS011;11050;52.222;20.916;2023-08-06T14:15:27;6.75;;;6.15;;
21777;SDS011;11050;52.222;20.916;2023-08-06T14:17:53;6.93;;;6.32;;
21777;SDS011;11050;52.222;20.916;2023-08-06T14:20:18;7.95;;;5.60;;
21777;SDS011;11050;52.222;20.916;2023-08-06T14:22:44;6.28;;;5.75;;
21777;SDS011;11050;52.222;20.916;2023-08-06T14:25:10;7.38;;;5.32;;
21777;SDS011;11050;52.222;20.916;2023-08-06T14:27:35;5.75;;;5.25;;
21777;SDS011;11050;52.222;20.916;2023-08-06T14:30:03;6.80;;;5.07;;
21777;SDS011;11050;52.222;20.916;2023-08-06T14:32:33;6.07;;;5.35;;
21777;SDS011;11050;52.222;20.916;2023-08-06T14:34:58;6.63;;;4.95;;